Williams Lake Airport
CYWL : now visible

Airfield :











YOU CAN JOIN US ON...

 
LOGIN :

Register | Disclaimer

   EN    FR    IT 

 









Legend :    VFR   Marginal VFR   IFR   Intensive IFR   Very Intensive IFR
Visi :
Ceiling :
>= 8 km
>= 3000ft
5 to 8 km
1000 to 3000 ft
1500m to 5 km
500 to 1000 ft
800 to 1500m
200 to 500 ft
< 800m
< 200 ft
Symbols :   Thunderstorms  Fog  Heavy snow  Heavy precipitations  Wind > 20 kt






- Airport Elevation : 3085 ft
- IATA code : YWL


CYWL - Williams Lake

CURRENT METAR :
  • 291800Z 10005KT 15SM BKN120 M18/M23 A3048 RMK AC6 SLP413

EXPIRED METARs :
  • 291700Z 11002KT 15SM FEW240 M21/M24 A3050 RMK CI2 SLP424
  • 291600Z 00000KT 15SM FEW240 M22/M25 A3050 RMK CI2 SLP425

TAF TAF CYWL
Valid from the 29 at 13:00 until the 30 at 01:00 UTC


291240Z 2913/3001 25005KT P6SM SKC
BECMG 2914/2916 12005KT FEW100 RMK NXT FCST BY 291900Z
CZVR FIR / North America



MET'MAP, your aeronautical weather chart ! - Copyright ORBIFLY December 2007 - Disclaimer

ORBIFLY MET'MAP TEAM :

Programming & Development : Alexandra Zaïnal
Original concept : Baudouin d'Aumeries
Technical & hardware support : Manuel Goepfert
Assistance : Marc-Olivier Méhu




SOURCES & CREDITS :

   NOAA       Earth
Advisory